Time;durP1;ratioP1;P1;durP2;ratioP2;P2;SDS_P1;SDS_P2;PMS_P1;PMS_P2;Temp;Humidity;BMP_temperature;BMP_pressure;BME280_temperature;BME280_humidity;BME280_pressure;Samples;Min_cycle;Max_cycle;Signal;HPM_P1;HPM_P2
2022/08/11 00:00:12;;;;;;;0.00;0.00;;;;;;;16.46;79.08;102187.50;4966599;28;20031;-70
2022/08/11 00:02:39;;;;;;;0.00;0.00;;;;;;;16.38;79.15;102188.13;4974494;28;20035;-70
2022/08/11 00:05:09;;;;;;;0.00;0.00;;;;;;;16.15;80.13;102177.31;4963935;28;20034;-69
2022/08/11 00:07:42;;;;;;;0.00;0.00;;;;;;;16.17;79.73;102182.59;4967370;28;20512;-70
2022/08/11 00:10:12;;;;;;;0.00;0.00;;;;;;;16.10;80.31;102189.50;4959035;28;20158;-70
2022/08/11 00:12:38;;;;;;;0.00;0.00;;;;;;;16.06;80.68;102185.31;4959832;28;20058;-70
2022/08/11 00:15:04;;;;;;;0.00;0.00;;;;;;;15.82;81.28;102165.44;4966050;28;20068;-70
2022/08/11 00:17:32;;;;;;;0.00;0.00;;;;;;;15.69;81.00;102154.72;4968621;28;20041;-70
2022/08/11 00:20:05;;;;;;;0.00;0.00;;;;;;;15.89;81.01;102196.50;4959123;28;20030;-70
2022/08/11 00:22:31;;;;;;;0.00;0.00;;;;;;;15.86;81.65;102199.47;4962259;28;20065;-70
2022/08/11 00:24:57;;;;;;;0.00;0.00;;;;;;;15.83;81.75;102193.41;4965702;28;20035;-69
2022/08/11 00:27:36;;;;;;;0.00;0.00;;;;;;;15.79;81.40;102192.75;4961076;28;20037;-70
2022/08/11 00:30:04;;;;;;;0.00;0.00;;;;;;;15.75;81.94;102189.44;4961953;28;20483;-69
2022/08/11 00:32:29;;;;;;;0.00;0.00;;;;;;;15.74;81.77;102176.88;4959068;28;20027;-69
2022/08/11 00:34:56;;;;;;;0.00;0.00;;;;;;;15.86;81.48;102187.78;4965454;28;20065;-69
2022/08/11 00:37:22;;;;;;;0.00;0.00;;;;;;;15.86;81.73;102194.03;4962366;28;20035;-70
2022/08/11 00:39:53;;;;;;;0.00;0.00;;;;;;;15.91;81.12;102190.13;4962177;28;20029;-69
2022/08/11 00:42:30;;;;;;;0.00;0.00;;;;;;;15.89;80.96;102188.38;4959788;28;20042;-69
2022/08/11 00:45:15;;;;;;;0.00;0.00;;;;;;;15.85;81.25;102188.72;4956905;28;20445;-69
2022/08/11 00:48:04;;;;;;;0.00;0.00;;;;;;;15.76;81.75;102182.16;4960763;28;20097;-69
2022/08/11 00:50:46;;;;;;;0.00;0.00;;;;;;;15.51;82.16;102167.00;4950846;28;20468;-69
2022/08/11 00:53:49;;;;;;;0.00;0.00;;;;;;;15.58;81.69;102179.09;4958521;28;20369;-69
2022/08/11 00:56:14;;;;;;;0.00;0.00;;;;;;;15.53;82.38;102184.84;4964085;28;20078;-69
2022/08/11 00:58:51;;;;;;;0.00;0.00;;;;;;;15.53;81.78;102187.53;4967581;28;20035;-69
2022/08/11 01:01:16;;;;;;;0.00;0.00;;;;;;;15.61;81.36;102189.69;4962051;28;20064;-69
2022/08/11 01:04:19;;;;;;;0.00;0.00;;;;;;;15.70;81.06;102186.22;4967861;28;20042;-69
2022/08/11 01:07:04;;;;;;;0.00;0.00;;;;;;;15.81;80.48;102185.38;4962830;28;20280;-69
2022/08/11 01:09:51;;;;;;;0.00;0.00;;;;;;;15.92;80.20;102189.13;4964434;28;20035;-69
2022/08/11 01:12:34;;;;;;;0.00;0.00;;;;;;;15.94;79.48;102188.00;4962139;28;20243;-69
2022/08/11 01:15:21;;;;;;;0.00;0.00;;;;;;;15.91;79.50;102184.69;4961713;28;20038;-69
2022/08/11 01:18:15;;;;;;;0.00;0.00;;;;;;;15.84;79.39;102187.84;4966980;28;20030;-69
2022/08/11 01:21:19;;;;;;;0.00;0.00;;;;;;;15.69;79.90;102184.50;4964114;28;20030;-69
2022/08/11 01:24:03;;;;;;;0.00;0.00;;;;;;;15.68;79.81;102185.50;4970928;28;20027;-69
2022/08/11 01:26:46;;;;;;;0.00;0.00;;;;;;;15.67;79.98;102188.31;4963941;28;20031;-69
2022/08/11 01:29:33;;;;;;;0.00;0.00;;;;;;;15.59;80.58;102195.19;4965773;28;20379;-69
2022/08/11 01:32:08;;;;;;;0.00;0.00;;;;;;;15.59;80.54;102189.78;4961586;28;20524;-69
2022/08/11 01:35:05;;;;;;;0.00;0.00;;;;;;;15.70;79.73;102201.63;4965365;28;20061;-69
2022/08/11 01:38:13;;;;;;;0.00;0.00;;;;;;;15.67;79.94;102191.03;4956505;28;20034;-69
2022/08/11 01:41:16;;;;;;;0.00;0.00;;;;;;;15.66;79.97;102197.44;4962841;28;20023;-70
2022/08/11 01:47:07;;;;;;;0.00;0.00;;;;;;;15.55;80.13;102185.59;4966665;28;20056;-69
2022/08/11 01:49:43;;;;;;;0.00;0.00;;;;;;;15.55;79.99;102182.88;4963625;28;20426;-69
2022/08/11 01:52:19;;;;;;;0.00;0.00;;;;;;;15.52;80.16;102182.25;4956536;28;20053;-69
2022/08/11 01:55:12;;;;;;;0.00;0.00;;;;;;;15.49;80.23;102185.22;4966940;28;20033;-69
2022/08/11 01:57:59;;;;;;;0.00;0.00;;;;;;;15.40;80.94;102189.50;4967190;28;20069;-69
2022/08/11 02:00:29;;;;;;;0.00;0.00;;;;;;;15.29;81.44;102187.63;4969126;28;20030;-69
2022/08/11 02:03:07;;;;;;;0.00;0.00;;;;;;;15.04;82.06;102189.47;4959349;28;20054;-69
2022/08/11 02:05:44;;;;;;;0.00;0.00;;;;;;;14.93;82.72;102189.41;4962550;28;20031;-69
2022/08/11 02:08:10;;;;;;;0.00;0.00;;;;;;;14.93;83.05;102186.72;4967349;28;20457;-69
2022/08/11 02:13:43;;;;;;;0.00;0.00;;;;;;;14.94;82.90;102183.03;4968914;28;20402;-69
2022/08/11 02:16:36;;;;;;;0.00;0.00;;;;;;;14.91;83.08;102186.84;4967807;28;20035;-69
2022/08/11 02:25:06;;;;;;;0.00;0.00;;;;;;;14.76;83.28;102193.38;4964628;28;20089;-70
2022/08/11 02:27:42;;;;;;;0.00;0.00;;;;;;;14.72;83.47;102191.88;4966178;28;20062;-70
2022/08/11 02:30:13;;;;;;;0.22;0.00;;;;;;;14.59;84.09;102189.19;4951567;28;20114;-70
2022/08/11 02:33:26;;;;;;;0.00;0.00;;;;;;;14.38;84.24;102171.75;4965471;28;20089;-70
2022/08/11 02:36:10;;;;;;;0.00;0.00;;;;;;;14.35;84.53;102187.31;4965910;28;20649;-70
2022/08/11 02:38:50;;;;;;;0.00;0.00;;;;;;;14.23;85.44;102186.34;4968453;28;20030;-70
2022/08/11 02:44:20;;;;;;;0.00;0.00;;;;;;;13.88;87.41;102193.31;4964094;28;20093;-70
2022/08/11 02:46:45;;;;;;;0.00;0.00;;;;;;;13.93;88.47;102185.75;4966611;28;20054;-70
2022/08/11 02:52:52;;;;;;;0.00;0.00;;;;;;;13.91;87.47;102192.22;4953005;28;20327;-70
2022/08/11 02:55:26;;;;;;;0.00;0.00;;;;;;;13.89;86.40;102196.88;4966901;28;20038;-70
2022/08/11 02:57:56;;;;;;;0.00;0.00;;;;;;;13.82;86.83;102190.19;4961872;28;20058;-70
2022/08/11 03:00:22;;;;;;;0.00;0.00;;;;;;;13.87;87.38;102188.03;4966143;28;20089;-70
2022/08/11 03:03:16;;;;;;;0.00;0.00;;;;;;;13.89;86.21;102186.09;4965482;28;20422;-70
2022/08/11 03:05:51;;;;;;;0.00;0.00;;;;;;;13.85;87.05;102184.56;4964158;28;20486;-70
2022/08/11 03:08:51;;;;;;;0.03;0.03;;;;;;;13.77;86.86;102188.66;4960114;28;20030;-70
2022/08/11 03:17:03;;;;;;;0.00;0.00;;;;;;;13.47;87.97;102194.38;4969475;28;20049;-70
2022/08/11 03:19:37;;;;;;;0.00;0.00;;;;;;;13.44;87.96;102189.19;4965511;28;20161;-70
2022/08/11 03:22:16;;;;;;;0.00;0.00;;;;;;;13.40;88.00;102182.22;4967407;28;20509;-70
2022/08/11 03:24:41;;;;;;;0.08;0.08;;;;;;;13.31;88.90;102187.25;4961551;28;20045;-70
2022/08/11 03:27:10;;;;;;;0.00;0.00;;;;;;;13.25;89.12;102194.91;4963523;28;20335;-70
2022/08/11 03:29:43;;;;;;;0.00;0.00;;;;;;;13.24;89.15;102185.97;4968916;28;20432;-70
2022/08/11 03:32:19;;;;;;;0.00;0.00;;;;;;;13.28;89.34;102183.94;4959349;28;20038;-70
2022/08/11 03:34:45;;;;;;;0.00;0.00;;;;;;;13.30;88.75;102187.38;4963571;28;20031;-70
2022/08/11 03:37:49;;;;;;;0.00;0.00;;;;;;;13.33;88.38;102184.47;4964580;28;20054;-70
2022/08/11 03:41:41;;;;;;;0.00;0.00;;;;;;;13.27;88.98;102182.19;4958684;28;20125;-70
2022/08/11 03:43:18;;;;;;;0.10;0.10;;;;;;;12.97;88.94;102140.16;4964502;28;20490;-70
2022/08/11 03:46:05;;;;;;;0.00;0.00;;;;;;;13.10;89.23;102181.53;4950292;28;20042;-70
2022/08/11 03:48:57;;;;;;;0.00;0.00;;;;;;;13.14;89.82;102174.06;4960019;28;20092;-70
2022/08/11 03:51:31;;;;;;;0.00;0.00;;;;;;;13.08;88.91;102178.06;4960621;28;20065;-70
2022/08/11 03:54:00;;;;;;;0.00;0.00;;;;;;;13.04;89.14;102174.69;4942054;28;20057;-70
2022/08/11 03:56:59;;;;;;;0.00;0.00;;;;;;;12.98;89.27;102177.78;4966388;28;20030;-70
2022/08/11 03:59:57;;;;;;;0.00;0.00;;;;;;;12.96;89.32;102182.44;4959352;28;20053;-70
2022/08/11 04:02:47;;;;;;;0.00;0.00;;;;;;;13.00;89.42;102180.41;4960677;28;20034;-70
2022/08/11 04:05:32;;;;;;;0.08;0.08;;;;;;;13.04;90.53;102187.31;4961005;28;20050;-70
2022/08/11 04:07:57;;;;;;;;;;;;;;;13.13;90.07;102183.13;4965037;28;20026;-70
2022/08/11 04:10:34;;;;;;;0.00;0.00;;;;;;;13.20;89.63;102177.22;4965641;28;19956;-70
2022/08/11 04:13:09;;;;;;;0.00;0.00;;;;;;;13.23;88.07;102177.97;4957279;28;20740;-70
2022/08/11 04:16:01;;;;;;;0.00;0.00;;;;;;;13.13;87.96;102175.03;4965077;28;20031;-70
2022/08/11 04:18:38;;;;;;;0.10;0.10;;;;;;;12.94;88.51;102162.81;4965641;28;20126;-70
2022/08/11 04:21:34;;;;;;;0.00;0.00;;;;;;;12.81;89.31;102165.47;4965177;28;20427;-71
2022/08/11 04:24:06;;;;;;;0.00;0.00;;;;;;;12.83;90.73;102176.13;4957204;28;20118;-70
2022/08/11 04:26:52;;;;;;;0.05;0.00;;;;;;;12.81;90.73;102175.34;4957882;28;20175;-71
2022/08/11 04:29:24;;;;;;;0.10;0.10;;;;;;;12.80;90.51;102176.31;4965824;28;20026;-70
2022/08/11 04:32:17;;;;;;;0.00;0.00;;;;;;;12.76;90.12;102172.97;4967904;28;20023;-69
2022/08/11 04:35:18;;;;;;;0.00;0.00;;;;;;;12.76;90.55;102183.75;4968955;28;20051;-70
2022/08/11 04:38:08;;;;;;;0.00;0.00;;;;;;;12.74;90.98;102183.84;4967744;28;20026;-69
2022/08/11 04:41:07;;;;;;;0.00;0.00;;;;;;;12.76;91.16;102170.28;4965251;28;20360;-69
2022/08/11 04:44:14;;;;;;;0.00;0.00;;;;;;;12.79;91.11;102177.28;4967134;28;20042;-69
2022/08/11 05:02:42;;;;;;;0.00;0.00;;;;;;;12.93;92.50;102179.06;4961994;28;20041;-70
2022/08/11 05:05:30;;;;;;;0.00;0.00;;;;;;;12.99;92.36;102182.22;4967932;28;20126;-70
2022/08/11 05:08:24;;;;;;;0.00;0.00;;;;;;;13.07;92.08;102180.84;4963575;28;20061;-70
2022/08/11 05:11:01;;;;;;;0.00;0.00;;;;;;;13.13;92.51;102175.88;4963869;28;20054;-70
2022/08/11 05:36:26;;;;;;;0.00;0.00;;;;;;;14.13;93.40;102191.56;4966912;28;20501;-69
2022/08/11 05:58:09;;;;;;;0.00;0.00;;;;;;;15.92;89.53;102195.41;4958794;28;20038;-70
2022/08/11 06:00:42;;;;;;;0.10;0.10;;;;;;;16.18;88.62;102201.47;4960147;28;20023;-70
2022/08/11 06:03:09;;;;;;;0.00;0.00;;;;;;;16.38;88.21;102190.84;4962115;28;20041;-70
2022/08/11 06:05:42;;;;;;;0.00;0.00;;;;;;;16.40;86.76;102150.94;4959634;28;20030;-70
2022/08/11 06:08:08;;;;;;;0.00;0.00;;;;;;;16.82;88.26;102190.03;4966790;28;20464;-71
2022/08/11 06:10:41;;;;;;;0.00;0.00;;;;;;;17.05;87.52;102193.56;4961443;28;20029;-70
2022/08/11 06:13:07;;;;;;;0.10;0.10;;;;;;;17.28;87.27;102190.75;4961298;28;20059;-70
2022/08/11 06:15:45;;;;;;;0.03;0.03;;;;;;;17.54;86.73;102202.09;4962844;28;20035;-71
2022/08/11 06:18:12;;;;;;;0.10;0.10;;;;;;;17.79;87.66;102208.94;4962974;28;20043;-70
2022/08/11 06:20:48;;;;;;;0.00;0.00;;;;;;;18.10;83.20;102209.00;4961972;28;20067;-71
2022/08/11 06:23:17;;;;;;;0.00;0.00;;;;;;;18.40;82.41;102201.84;4958841;28;20404;-71
2022/08/11 06:25:43;;;;;;;0.10;0.10;;;;;;;18.64;81.79;102208.78;4964919;28;20041;-71
2022/08/11 06:28:08;;;;;;;0.00;0.00;;;;;;;18.85;80.94;102205.09;4968403;28;20026;-70
2022/08/11 06:30:40;;;;;;;0.00;0.00;;;;;;;19.03;73.58;102206.16;4960831;28;20015;-70
2022/08/11 06:33:18;;;;;;;0.00;0.00;;;;;;;19.34;74.91;102203.25;4956788;28;20043;-71
2022/08/11 06:36:03;;;;;;;0.00;0.00;;;;;;;19.60;73.64;102199.09;4968385;28;20082;-71
2022/08/11 06:38:48;;;;;;;0.00;0.00;;;;;;;19.78;70.94;102200.03;4961817;28;20105;-71
2022/08/11 06:41:29;;;;;;;0.15;0.00;;;;;;;19.97;69.65;102197.44;4966688;28;20026;-71
2022/08/11 06:44:12;;;;;;;0.00;0.00;;;;;;;20.19;71.54;102198.94;4962959;28;20031;-70
2022/08/11 06:46:46;;;;;;;0.00;0.00;;;;;;;20.40;70.15;102190.50;4967904;28;20030;-71
2022/08/11 06:52:00;;;;;;;0.00;0.00;;;;;;;20.73;66.62;102196.34;4965596;28;20069;-70
2022/08/11 06:54:28;;;;;;;0.00;0.00;;;;;;;20.80;64.15;102192.03;4940890;28;20058;-70
2022/08/11 07:02:26;;;;;;;0.00;0.00;;;;;;;21.22;62.58;102200.59;4963084;28;20396;-71
2022/08/11 07:04:59;;;;;;;0.00;0.00;;;;;;;21.40;62.18;102201.47;4963731;28;20092;-70
2022/08/11 07:16:47;;;;;;;0.00;0.00;;;;;;;22.08;61.41;102198.16;4962513;28;20461;-70
2022/08/11 07:30:29;;;;;;;0.00;0.00;;;;;;;22.65;55.68;102193.97;4959423;28;20062;-70
2022/08/11 07:33:00;;;;;;;0.00;0.00;;;;;;;22.74;56.30;102201.19;4967054;28;20031;-70
2022/08/11 07:35:37;;;;;;;0.00;0.00;;;;;;;22.85;55.40;102198.13;4965685;28;20049;-70
2022/08/11 07:38:05;;;;;;;0.00;0.00;;;;;;;22.85;54.25;102176.22;4964450;28;20446;-71
2022/08/11 07:40:31;;;;;;;0.08;0.08;;;;;;;23.01;53.74;102194.56;4961951;28;20056;-70
2022/08/11 07:42:58;;;;;;;0.00;0.00;;;;;;;23.21;53.58;102200.59;4961263;28;20431;-70
2022/08/11 07:53:37;;;;;;;;;;;;;;;23.49;50.32;102191.16;4962130;28;20031;-70
2022/08/11 07:56:04;;;;;;;0.00;0.00;;;;;;;23.62;51.17;102193.38;4962876;28;19913;-70
2022/08/11 08:17:55;;;;;;;0.00;0.00;;;;;;;24.60;51.21;102199.59;4963922;28;20073;-70
2022/08/11 08:20:25;;;;;;;0.00;0.00;;;;;;;24.51;50.92;102189.69;4964552;28;20081;-70
2022/08/11 08:22:56;;;;;;;0.00;0.00;;;;;;;24.60;49.37;102191.34;4958755;28;20039;-71
2022/08/11 08:25:26;;;;;;;0.00;0.00;;;;;;;24.47;51.60;102196.56;4963277;28;20123;-70
2022/08/11 08:27:53;;;;;;;0.00;0.00;;;;;;;24.61;50.13;102194.94;4959247;28;20383;-71
2022/08/11 08:33:03;;;;;;;0.00;0.00;;;;;;;24.95;49.92;102164.34;4965714;28;20538;-69
2022/08/11 08:35:29;;;;;;;0.00;0.00;;;;;;;25.14;50.89;102179.50;4966120;28;20034;-71
2022/08/11 08:37:56;;;;;;;0.00;0.00;;;;;;;25.34;50.27;102186.38;4967208;28;20135;-70
2022/08/11 08:40:21;;;;;;;0.00;0.00;;;;;;;25.25;48.18;102156.22;4965322;28;20027;-71
2022/08/11 08:42:57;;;;;;;0.00;0.00;;;;;;;25.52;47.84;102189.69;4965067;28;20076;-71
2022/08/11 08:45:24;;;;;;;0.00;0.00;;;;;;;25.65;47.70;102191.78;4966357;28;20027;-71
2022/08/11 08:48:15;;;;;;;0.00;0.00;;;;;;;25.81;46.27;102193.50;4959016;28;20035;-70
2022/08/11 08:51:36;;;;;;;0.00;0.00;;;;;;;25.90;47.20;102191.50;4962540;28;20018;-70
2022/08/11 08:53:40;;;;;;;0.00;0.00;;;;;;;26.03;45.11;102188.97;4965513;28;20051;-70
2022/08/11 08:56:06;;;;;;;0.00;0.00;;;;;;;26.18;48.19;102194.50;4964685;28;20106;-70
2022/08/11 08:58:33;;;;;;;0.00;0.00;;;;;;;26.27;47.18;102195.25;4944930;28;20534;-71
2022/08/11 09:00:59;;;;;;;0.00;0.00;;;;;;;26.38;45.71;102198.53;4959134;28;20454;-70
2022/08/11 09:03:26;;;;;;;0.00;0.00;;;;;;;26.24;45.71;102161.72;4964067;28;20508;-70
2022/08/11 09:05:53;;;;;;;0.00;0.00;;;;;;;26.49;44.62;102179.63;4963404;28;20069;-71
2022/08/11 09:08:20;;;;;;;0.00;0.00;;;;;;;26.77;45.60;102189.03;4965366;28;20086;-71
2022/08/11 09:11:48;;;;;;;0.00;0.00;;;;;;;26.83;44.12;102190.19;4967575;28;20570;-71
2022/08/11 09:13:32;;;;;;;0.00;0.00;;;;;;;26.83;41.36;102188.31;4959687;28;20042;-70
2022/08/11 09:15:58;;;;;;;0.00;0.00;;;;;;;26.72;41.59;102186.88;4965779;28;20376;-71
2022/08/11 09:18:23;;;;;;;0.00;0.00;;;;;;;26.52;43.78;102156.38;4957491;28;20026;-71
2022/08/11 09:20:49;;;;;;;0.00;0.00;;;;;;;26.86;42.87;102178.78;4960639;28;20054;-71
2022/08/11 09:28:45;;;;;;;0.00;0.00;;;;;;;27.15;43.47;102174.19;4968583;28;20053;-71
2022/08/11 09:31:12;;;;;;;0.00;0.00;;;;;;;27.34;43.12;102169.91;4971598;28;20038;-71
2022/08/11 09:33:38;;;;;;;0.00;0.00;;;;;;;27.56;41.25;102164.34;4960572;28;20464;-70
2022/08/11 09:40:27;;;;;;;0.00;0.00;;;;;;;27.70;41.25;102171.66;4962059;28;20038;-70
2022/08/11 09:41:36;;;;;;;0.00;0.00;;;;;;;28.00;40.95;102174.16;4968379;28;20074;-70
2022/08/11 09:46:47;;;;;;;0.00;0.00;;;;;;;28.20;39.16;102170.72;4958820;28;20104;-70
2022/08/11 09:49:13;;;;;;;0.00;0.00;;;;;;;28.19;40.10;102169.00;4967072;28;20445;-70
2022/08/11 09:51:40;;;;;;;0.00;0.00;;;;;;;28.31;39.84;102167.34;4966084;28;20322;-71
2022/08/11 09:54:05;;;;;;;0.00;0.00;;;;;;;28.34;37.98;102166.94;4954785;28;20034;-70
2022/08/11 09:59:19;;;;;;;0.00;0.00;;;;;;;28.53;39.79;102140.44;4962902;28;20096;-70
2022/08/11 10:01:56;;;;;;;0.00;0.00;;;;;;;28.81;38.81;102149.66;4965172;28;20034;-70
2022/08/11 10:04:41;;;;;;;0.00;0.00;;;;;;;29.11;38.41;102157.56;4966710;28;20019;-71
2022/08/11 10:07:09;;;;;;;0.00;0.00;;;;;;;29.34;38.10;102152.44;4963733;28;20031;-71
2022/08/11 10:09:37;;;;;;;0.00;0.00;;;;;;;29.48;36.55;102146.94;4958339;28;20550;-70
2022/08/11 10:12:07;;;;;;;0.00;0.00;;;;;;;29.61;35.36;102149.66;4957290;28;20475;-70
2022/08/11 10:17:18;;;;;;;0.00;0.00;;;;;;;29.72;34.51;102141.78;4965225;28;20033;-70
2022/08/11 10:19:45;;;;;;;0.00;0.00;;;;;;;29.97;34.82;102133.63;4955413;28;20035;-69
2022/08/11 10:27:43;;;;;;;0.00;0.00;;;;;;;30.26;34.37;102136.91;4970737;28;20076;-70
2022/08/11 10:35:40;;;;;;;0.00;0.00;;;;;;;30.57;32.72;102138.03;4960365;28;20033;-70
2022/08/11 10:38:05;;;;;;;0.00;0.00;;;;;;;30.59;34.57;102135.06;4963793;28;20038;-68
2022/08/11 10:40:31;;;;;;;0.00;0.00;;;;;;;30.48;32.92;102095.00;4961082;28;20058;-70
2022/08/11 10:43:01;;;;;;;0.00;0.00;;;;;;;30.78;32.64;102128.53;4966698;28;20031;-69
2022/08/11 10:48:19;;;;;;;0.00;0.00;;;;;;;30.96;33.42;102121.34;4968707;28;20058;-70
2022/08/11 10:59:00;;;;;;;0.00;0.00;;;;;;;31.48;34.34;102111.94;4966543;28;20126;-68
2022/08/11 11:01:31;;;;;;;0.00;0.00;;;;;;;31.64;30.08;102096.59;4960067;28;20530;-68
2022/08/11 11:03:59;;;;;;;0.00;0.00;;;;;;;31.70;30.86;102107.63;4959844;28;20528;-68
2022/08/11 11:06:43;;;;;;;0.00;0.00;;;;;;;31.77;30.20;102102.03;4962380;28;20089;-69
2022/08/11 11:09:16;;;;;;;0.00;0.00;;;;;;;32.16;31.45;102116.47;4963931;28;20030;-69
2022/08/11 11:20:15;;;;;;;0.00;0.00;;;;;;;32.50;29.43;102104.09;4966324;28;20041;-68
2022/08/11 11:22:46;;;;;;;0.00;0.00;;;;;;;32.31;28.05;102090.25;4960004;28;20496;-68
2022/08/11 11:25:34;;;;;;;0.00;0.00;;;;;;;32.19;26.99;102100.44;4965639;28;20070;-68
2022/08/11 11:28:25;;;;;;;0.00;0.00;;;;;;;32.34;26.95;102100.88;4961127;28;20038;-69
2022/08/11 11:31:02;;;;;;;0.00;0.00;;;;;;;32.58;26.30;102087.91;4960869;28;20034;-69
2022/08/11 11:34:01;;;;;;;0.00;0.00;;;;;;;32.65;26.80;102089.75;4962744;28;20027;-68
2022/08/11 11:36:49;;;;;;;0.00;0.00;;;;;;;32.19;29.62;102092.09;4964171;28;20066;-68
2022/08/11 11:39:18;;;;;;;0.00;0.00;;;;;;;31.88;31.51;102094.00;4964468;28;20378;-70
2022/08/11 11:41:43;;;;;;;0.00;0.00;;;;;;;32.54;28.76;102089.47;4965353;28;20029;-70
2022/08/11 11:44:10;;;;;;;0.00;0.00;;;;;;;31.98;27.88;102088.75;4959119;28;20038;-69
2022/08/11 11:46:36;;;;;;;0.00;0.00;;;;;;;32.37;27.35;102075.41;4962948;28;20022;-69
2022/08/11 11:49:06;;;;;;;0.00;0.00;;;;;;;32.49;30.76;102089.31;4961331;28;20041;-70
2022/08/11 11:51:32;;;;;;;0.00;0.00;;;;;;;32.80;27.72;102056.75;4957995;28;20046;-69
2022/08/11 11:53:57;;;;;;;0.00;0.00;;;;;;;32.85;28.83;102081.94;4964937;28;20031;-69
2022/08/11 11:56:23;;;;;;;0.03;0.03;;;;;;;33.24;27.24;102087.03;4958582;28;20026;-71
2022/08/11 12:01:33;;;;;;;0.00;0.00;;;;;;;34.44;25.61;102080.06;4955665;28;20093;-70
2022/08/11 12:03:59;;;;;;;0.00;0.00;;;;;;;35.00;24.28;102076.56;4954639;28;20829;-70
2022/08/11 12:06:26;;;;;;;0.10;0.10;;;;;;;33.62;27.88;102070.91;4957914;28;20027;-67
2022/08/11 12:08:54;;;;;;;0.00;0.00;;;;;;;33.76;26.56;102063.97;4961486;28;20387;-67
2022/08/11 12:14:07;;;;;;;0.00;0.00;;;;;;;34.85;25.48;102060.41;4959941;28;20046;-68
2022/08/11 12:16:35;;;;;;;0.00;0.00;;;;;;;35.23;25.46;102032.78;4962534;28;20522;-68
2022/08/11 12:19:03;;;;;;;0.00;0.00;;;;;;;35.27;24.21;102053.50;4966736;28;20068;-69
2022/08/11 12:21:29;;;;;;;0.00;0.00;;;;;;;35.28;23.77;102061.66;4962904;28;20026;-67
2022/08/11 12:29:13;;;;;;;0.00;0.00;;;;;;;36.68;22.76;102034.44;4965487;28;20487;-67
2022/08/11 12:31:40;;;;;;;0.03;0.03;;;;;;;36.83;22.92;102025.28;4960844;28;20065;-68
2022/08/11 12:34:07;;;;;;;0.00;0.00;;;;;;;37.54;22.47;102043.63;4959494;28;20263;-68
2022/08/11 12:36:38;;;;;;;0.00;0.00;;;;;;;37.20;23.66;102014.06;4967111;28;20487;-67
2022/08/11 12:39:09;;;;;;;0.10;0.10;;;;;;;36.50;20.77;102027.28;4961320;28;20038;-68
2022/08/11 12:47:07;;;;;;;0.00;0.00;;;;;;;36.26;21.96;102016.44;4963500;28;20037;-65
2022/08/11 12:52:25;;;;;;;0.00;0.00;;;;;;;36.20;22.76;102012.75;4956659;28;20042;-68
2022/08/11 12:54:58;;;;;;;0.00;0.00;;;;;;;37.02;22.61;102006.16;4959216;28;20317;-68
2022/08/11 13:05:55;;;;;;;0.00;0.00;;;;;;;38.53;19.98;102003.50;4966201;28;20038;-68
2022/08/11 13:08:23;;;;;;;0.00;0.00;;;;;;;38.58;21.41;102004.59;4967169;28;20062;-67
2022/08/11 13:13:34;;;;;;;0.00;0.00;;;;;;;38.63;21.21;101998.97;4964859;28;20033;-68
2022/08/11 13:16:00;;;;;;;0.00;0.00;;;;;;;38.75;20.33;101999.53;4966923;28;20030;-68
2022/08/11 13:18:26;;;;;;;0.10;0.10;;;;;;;38.66;22.20;101996.47;4968507;28;20022;-68
2022/08/11 13:20:55;;;;;;;0.00;0.00;;;;;;;39.19;19.48;101991.56;4968517;28;20037;-68
2022/08/11 13:23:21;;;;;;;0.00;0.00;;;;;;;38.98;20.96;101963.56;4961959;28;20048;-68
2022/08/11 13:25:47;;;;;;;0.00;0.00;;;;;;;38.13;20.54;101981.88;4962895;28;20033;-67
2022/08/11 13:28:12;;;;;;;0.00;0.00;;;;;;;38.58;20.63;101979.34;4970384;28;20027;-69
2022/08/11 13:33:24;;;;;;;0.00;0.00;;;;;;;37.48;20.59;101963.50;4963832;28;20041;-68
2022/08/11 13:35:51;;;;;;;0.05;0.00;;;;;;;37.36;23.31;101967.38;4961900;28;20034;-67
2022/08/11 13:38:20;;;;;;;0.10;0.10;;;;;;;37.84;21.16;101965.56;4967776;28;20030;-68
2022/08/11 13:40:46;;;;;;;0.00;0.00;;;;;;;38.60;20.40;101968.69;4964344;28;20080;-68
2022/08/11 13:43:13;;;;;;;0.00;0.00;;;;;;;39.20;20.38;101960.38;4969489;28;20109;-68
2022/08/11 13:45:38;;;;;;;0.00;0.00;;;;;;;39.43;19.82;101961.69;4963983;28;20543;-68
2022/08/11 13:48:07;;;;;;;0.00;0.00;;;;;;;39.29;18.59;101955.03;4965039;28;20035;-68
2022/08/11 13:53:20;;;;;;;0.00;0.00;;;;;;;39.43;19.73;101958.88;4966579;28;20463;-68
2022/08/11 13:55:45;;;;;;;0.00;0.00;;;;;;;39.34;20.65;101945.75;4964829;28;20150;-68
2022/08/11 13:58:12;;;;;;;0.00;0.00;;;;;;;38.45;19.05;101956.38;4971474;28;20084;-68
2022/08/11 14:00:38;;;;;;;0.00;0.00;;;;;;;38.36;21.05;101946.81;4961128;28;20038;-68
2022/08/11 14:03:07;;;;;;;0.00;0.00;;;;;;;38.60;19.38;101963.06;4967115;28;20042;-68
2022/08/11 14:05:37;;;;;;;0.03;0.03;;;;;;;39.08;19.56;101941.06;4966063;28;20253;-68
2022/08/11 14:08:04;;;;;;;0.00;0.00;;;;;;;39.66;19.91;101948.06;4957604;28;20287;-68
2022/08/11 14:10:32;;;;;;;0.00;0.00;;;;;;;39.53;19.02;101945.94;4961249;28;20046;-67
2022/08/11 14:15:56;;;;;;;0.00;0.00;;;;;;;40.70;18.71;101935.97;4958179;28;20038;-68
2022/08/11 14:18:25;;;;;;;0.00;0.00;;;;;;;40.98;17.70;101941.81;4962270;28;20027;-68
2022/08/11 14:23:41;;;;;;;0.00;0.00;;;;;;;40.82;18.68;101932.72;4962203;28;20082;-67
2022/08/11 14:26:26;;;;;;;0.00;0.00;;;;;;;40.53;17.56;101931.63;4956986;28;20126;-68
2022/08/11 14:29:00;;;;;;;0.00;0.00;;;;;;;39.32;19.34;101920.78;4969680;28;20031;-68
2022/08/11 14:31:28;;;;;;;0.00;0.00;;;;;;;39.62;20.20;101915.25;4967517;28;20034;-67
2022/08/11 14:33:55;;;;;;;0.00;0.00;;;;;;;39.89;17.89;101931.63;4962057;28;20030;-69
2022/08/11 14:36:23;;;;;;;0.00;0.00;;;;;;;39.82;18.72;101926.34;4963959;28;20077;-65
2022/08/11 14:38:48;;;;;;;0.00;0.00;;;;;;;40.00;18.38;101923.94;4964661;28;20038;-68
2022/08/11 14:49:27;;;;;;;0.00;0.00;;;;;;;40.21;18.24;101915.38;4965296;28;20074;-68
2022/08/11 14:51:53;;;;;;;0.00;0.00;;;;;;;39.69;17.59;101922.19;4963639;28;20034;-68
2022/08/11 14:57:06;;;;;;;0.00;0.00;;;;;;;38.03;19.97;101901.41;4958427;28;20050;-67
2022/08/11 14:59:31;;;;;;;0.00;0.00;;;;;;;37.69;20.51;101882.34;4962833;28;20035;-67
2022/08/11 15:04:41;;;;;;;0.00;0.00;;;;;;;36.59;21.89;101895.06;4959188;28;20041;-66
2022/08/11 15:07:06;;;;;;;0.10;0.10;;;;;;;35.98;22.67;101898.25;4965266;28;20046;-65
2022/08/11 15:09:32;;;;;;;0.00;0.00;;;;;;;35.61;21.77;101885.88;4965058;28;20086;-65
2022/08/11 15:12:07;;;;;;;0.00;0.00;;;;;;;35.34;23.17;101886.69;4960432;28;20492;-65
2022/08/11 15:17:17;;;;;;;0.00;0.00;;;;;;;34.94;23.16;101874.75;4966044;28;20069;-66
2022/08/11 15:25:11;;;;;;;0.00;0.00;;;;;;;34.46;23.49;101874.38;4963655;28;20525;-65
2022/08/11 15:38:49;;;;;;;0.00;0.00;;;;;;;35.19;22.24;101865.03;4960730;28;20107;-65
2022/08/11 15:46:50;;;;;;;0.00;0.00;;;;;;;37.13;20.24;101865.13;4965585;28;20053;-65
2022/08/11 15:49:22;;;;;;;0.00;0.00;;;;;;;37.00;20.90;101860.06;4965210;28;20105;-65
2022/08/11 15:51:59;;;;;;;0.00;0.00;;;;;;;35.71;21.55;101829.28;4960799;28;20015;-66
2022/08/11 15:54:27;;;;;;;0.00;0.00;;;;;;;34.88;22.19;101839.53;4947197;28;20027;-66
2022/08/11 15:56:54;;;;;;;0.00;0.00;;;;;;;34.44;23.02;101850.66;4963705;28;20116;-68
2022/08/11 16:04:49;;;;;;;0.00;0.00;;;;;;;33.59;24.14;101823.63;4954234;28;20149;-66
2022/08/11 16:07:23;;;;;;;0.00;0.00;;;;;;;33.60;24.05;101845.69;4962387;28;20419;-67
2022/08/11 16:09:51;;;;;;;0.00;0.00;;;;;;;33.57;24.35;101848.09;4963271;28;20035;-67
2022/08/11 16:12:20;;;;;;;0.00;0.00;;;;;;;33.26;24.00;101848.34;4963841;28;20023;-67
2022/08/11 16:17:49;;;;;;;0.00;0.00;;;;;;;32.99;26.29;101850.84;4956895;28;20098;-67
2022/08/11 16:20:17;;;;;;;0.00;0.00;;;;;;;32.56;24.93;101830.75;4962781;28;20030;-67
2022/08/11 16:22:46;;;;;;;0.00;0.00;;;;;;;32.51;25.61;101827.84;4960825;28;20078;-67
2022/08/11 16:25:16;;;;;;;0.00;0.00;;;;;;;32.53;26.26;101832.06;4944797;28;20602;-67
2022/08/11 16:27:44;;;;;;;0.00;0.00;;;;;;;32.33;25.93;101814.94;4962688;28;20508;-72
2022/08/11 16:30:09;;;;;;;0.00;0.00;;;;;;;32.28;25.38;101826.78;4964268;28;20537;-66
2022/08/11 16:32:38;;;;;;;0.00;0.00;;;;;;;32.12;25.72;101826.38;4967126;28;20023;-68